Rechercher aéroport 
image banner adimage banner adimage banner ad
image banner ad

KMIT - Shafter-Minter Field

Situé à Shafter, United States

ICAO - MIT, IATA -

Données fournies par Airmate  

Information générale

Coordonnées: N35°30'27" W119°11'32"
Élévation : 425 feet MSL.
Variation magnétique : 13° East
Voir autres Aéroports à California

Données opérationnelles

Special qualification required
Heure actuelle UTC:
Heure actuelle locale:
Météo à : KBFL - Meadows Field ( 15 km )
METAR: KBFL 262154Z 36007KT 8SM CLR 31/08 A2989 RMK AO2 RAE10 SLP115 P0000 T03110083
TAF: KBFL 261720Z 2618/2718 VRB03KT P6SM BKN150 FM262000 30008KT P6SM SCT100 BKN150 FM271000 VRB04KT P6SM SCT200
Voir NOTAMs / SUP AIP / TFR affectant cet aéroport [VIEW]
Fréquences de communication: [VIEW]

Pistes:

Identifiant RWYQFULongueur (ft)Largeur (ft)SurfaceLDA (ft)
12133°4501100ASPH
30313°4501100ASPH
17180°2970100CONC
352970100CONC
0890°367260ASPH
26270°367260ASPH

Coordonnées de l'aéroport

Adresse: Shafter United States

Vue satellite de KMIT